Time;durP1;ratioP1;P1;durP2;ratioP2;P2;SDS_P1;SDS_P2;PMS_P1;PMS_P2;Temp;Humidity;BMP_temperature;BMP_pressure;BME280_temperature;BME280_humidity;BME280_pressure;Samples;Min_cycle;Max_cycle;Signal;HPM_P1;HPM_P2
2021/08/08 00:00:58;;;;;;;5.47;2.70;;;589.00;2432.00;;;;;;5013675;28;20026;-78
2021/08/08 00:03:25;;;;;;;5.05;3.10;;;589.00;2432.00;;;;;;5012198;28;20045;-77
2021/08/08 00:05:51;;;;;;;6.35;3.03;;;589.00;2432.00;;;;;;5012507;28;20374;-77
2021/08/08 00:08:19;;;;;;;4.05;2.45;;;589.00;2432.00;;;;;;5013786;28;20164;-77
2021/08/08 00:10:46;;;;;;;6.00;2.97;;;589.00;2432.00;;;;;;5012207;28;20032;-77
2021/08/08 00:13:11;;;;;;;5.38;2.60;;;589.00;2432.00;;;;;;5013877;28;20033;-78
2021/08/08 00:15:38;;;;;;;4.28;2.63;;;589.00;2432.00;;;;;;5012453;28;20026;-79
2021/08/08 00:18:05;;;;;;;5.15;2.50;;;589.00;2432.00;;;;;;5020053;28;20025;-78
2021/08/08 00:20:31;;;;;;;6.30;2.75;;;589.00;2432.00;;;;;;5017788;28;20033;-77
2021/08/08 00:22:58;;;;;;;5.80;2.83;;;588.90;2432.00;;;;;;5005278;28;20397;-77
2021/08/08 00:25:24;;;;;;;5.97;3.17;;;589.00;2432.00;;;;;;5013263;28;20030;-77
2021/08/08 00:27:50;;;;;;;5.80;3.30;;;588.90;2432.00;;;;;;5020786;28;20083;-77
2021/08/08 00:30:16;;;;;;;5.45;3.33;;;589.00;2432.00;;;;;;5016372;28;20026;-77
2021/08/08 00:32:42;;;;;;;4.75;2.60;;;589.00;2432.00;;;;;;5019143;28;20026;-77
2021/08/08 00:35:08;;;;;;;5.47;2.88;;;588.90;2432.00;;;;;;5010101;28;20076;-77
2021/08/08 00:37:36;;;;;;;3.53;2.33;;;588.90;2432.00;;;;;;5011386;28;20037;-77
2021/08/08 00:40:03;;;;;;;5.40;2.67;;;588.90;2432.00;;;;;;5012469;28;20029;-77
2021/08/08 00:42:29;;;;;;;6.78;2.97;;;588.90;2432.00;;;;;;5013748;28;20030;-77
2021/08/08 00:44:55;;;;;;;6.03;2.83;;;588.90;2432.00;;;;;;5013463;28;20109;-77
2021/08/08 00:47:20;;;;;;;5.22;3.42;;;588.80;2432.00;;;;;;5012061;28;20440;-77
2021/08/08 00:49:46;;;;;;;6.00;2.78;;;588.80;2432.00;;;;;;5011648;28;20084;-76
2021/08/08 00:52:12;;;;;;;4.43;2.70;;;564.10;2432.00;;;;;;5012666;28;20034;-76
2021/08/08 00:54:38;;;;;;;3.58;2.22;;;564.10;2432.00;;;;;;5013339;28;20116;-77
2021/08/08 00:57:04;;;;;;;4.93;2.38;;;564.10;2432.00;;;;;;5011637;28;20045;-77
2021/08/08 00:59:30;;;;;;;5.28;2.83;;;564.00;2432.00;;;;;;5011922;28;20448;-77
2021/08/08 01:01:55;;;;;;;4.53;2.78;;;564.00;2432.00;;;;;;5011422;28;20038;-77
2021/08/08 01:04:31;;;;;;;3.92;2.55;;;564.00;2432.00;;;;;;5011877;28;20405;-77
2021/08/08 01:07:09;;;;;;;3.97;2.83;;;564.00;2432.00;;;;;;5013184;28;20033;-77
2021/08/08 01:09:40;;;;;;;3.40;2.53;;;563.90;2432.00;;;;;;5011719;28;20389;-77
2021/08/08 01:12:06;;;;;;;6.97;3.00;;;563.90;2432.00;;;;;;5012099;28;20018;-77
2021/08/08 01:14:34;;;;;;;4.80;2.70;;;563.90;2432.00;;;;;;5011660;28;20113;-77
2021/08/08 01:17:04;;;;;;;5.28;4.00;;;563.90;2432.00;;;;;;5013085;28;20014;-77
2021/08/08 01:19:35;;;;;;;3.92;2.47;;;563.90;2432.00;;;;;;5012886;28;20017;-77
2021/08/08 01:22:03;;;;;;;4.90;2.95;;;563.80;2432.00;;;;;;5010450;28;20507;-77
2021/08/08 01:24:29;;;;;;;4.35;2.90;;;563.80;2432.00;;;;;;5012992;28;20053;-78
2021/08/08 01:26:56;;;;;;;4.55;2.83;;;563.70;2432.00;;;;;;5000283;28;20030;-77
2021/08/08 01:29:21;;;;;;;5.68;3.55;;;563.70;2432.00;;;;;;5044320;28;20084;-77
2021/08/08 01:31:53;;;;;;;5.05;2.83;;;563.70;2432.00;;;;;;5030160;28;20500;-77
2021/08/08 01:34:19;;;;;;;5.88;3.03;;;563.60;2432.00;;;;;;5016384;28;20080;-77
2021/08/08 01:36:46;;;;;;;4.18;2.50;;;563.60;2432.00;;;;;;5024138;28;20026;-78
2021/08/08 01:39:17;;;;;;;5.65;2.78;;;563.60;2432.00;;;;;;5011094;28;20441;-77
2021/08/08 01:41:52;;;;;;;4.10;3.05;;;563.60;2432.00;;;;;;5012837;28;20014;-78
2021/08/08 01:44:22;;;;;;;3.85;2.78;;;563.60;2432.00;;;;;;5012405;28;20030;-77
2021/08/08 01:46:53;;;;;;;5.28;3.10;;;563.60;2432.00;;;;;;5011471;28;20064;-78
2021/08/08 01:49:23;;;;;;;4.57;3.20;;;563.60;2432.00;;;;;;5012313;28;20018;-78
2021/08/08 01:51:54;;;;;;;4.80;3.30;;;563.60;2432.00;;;;;;5010995;28;20035;-78
2021/08/08 01:54:19;;;;;;;5.97;3.00;;;563.50;2432.00;;;;;;5011562;28;20026;-78
2021/08/08 01:56:46;;;;;;;5.07;3.08;;;563.60;2432.00;;;;;;5010967;28;20022;-78
2021/08/08 01:59:13;;;;;;;3.83;2.60;;;563.40;2432.00;;;;;;5007962;28;20029;-76
2021/08/08 02:01:39;;;;;;;4.70;2.80;;;563.50;2432.00;;;;;;5011000;28;20370;-76
2021/08/08 02:04:35;;;;;;;5.95;2.88;;;563.40;2432.00;;;;;;5025553;28;20045;-76
2021/08/08 02:07:01;;;;;;;4.45;2.97;;;563.40;2432.00;;;;;;4960862;28;20034;-76
2021/08/08 02:09:27;;;;;;;5.07;3.10;;;563.30;2432.00;;;;;;4970505;28;20035;-77
2021/08/08 02:11:53;;;;;;;4.13;2.40;;;563.30;2432.00;;;;;;4971172;28;20049;-77
2021/08/08 02:14:18;;;;;;;5.75;3.13;;;538.50;2406.40;;;;;;4970624;28;20478;-77
2021/08/08 02:16:44;;;;;;;7.13;2.83;;;538.50;2406.40;;;;;;4971264;28;20027;-77
2021/08/08 02:19:10;;;;;;;6.70;3.17;;;538.50;2406.40;;;;;;4970922;28;20398;-77
2021/08/08 02:21:35;;;;;;;4.10;2.72;;;538.50;2406.40;;;;;;4968711;28;20867;-77
2021/08/08 02:24:01;;;;;;;4.88;3.50;;;538.30;2406.40;;;;;;4970909;28;20118;-77
2021/08/08 02:26:27;;;;;;;4.80;2.95;;;538.30;2406.40;;;;;;4970487;28;20037;-77
2021/08/08 02:28:53;;;;;;;5.60;3.65;;;538.30;2406.40;;;;;;4971279;28;20094;-77
2021/08/08 02:31:18;;;;;;;4.45;3.05;;;538.30;2406.40;;;;;;4970439;28;20514;-77
2021/08/08 02:33:47;;;;;;;5.00;3.20;;;538.30;2406.40;;;;;;4973958;28;20049;-77
2021/08/08 02:36:13;;;;;;;6.22;3.00;;;538.30;2406.40;;;;;;4974633;28;20038;-76
2021/08/08 02:38:39;;;;;;;4.20;2.90;;;538.30;2406.40;;;;;;4974910;28;20027;-76
2021/08/08 02:41:05;;;;;;;4.60;2.63;;;538.30;2406.40;;;;;;4958252;28;20027;-76
2021/08/08 02:43:31;;;;;;;4.25;2.72;;;538.20;2406.40;;;;;;4997880;28;20036;-77
2021/08/08 02:45:57;;;;;;;4.88;2.70;;;538.10;2406.40;;;;;;5015750;28;20100;-77
2021/08/08 02:48:22;;;;;;;5.43;2.58;;;538.10;2406.40;;;;;;5015368;28;20485;-76
2021/08/08 02:50:48;;;;;;;6.57;3.13;;;538.10;2406.40;;;;;;5015414;28;20040;-77
2021/08/08 02:53:14;;;;;;;6.40;3.20;;;538.00;2406.40;;;;;;5013830;28;20026;-77
2021/08/08 02:55:40;;;;;;;4.85;2.80;;;538.00;2406.40;;;;;;5027320;28;20022;-76
2021/08/08 02:58:05;;;;;;;8.38;2.78;;;538.00;2406.40;;;;;;5023352;28;20553;-76
2021/08/08 03:00:31;;;;;;;5.13;3.30;;;538.00;2406.40;;;;;;5017005;28;20026;-77
2021/08/08 03:02:57;;;;;;;6.75;3.13;;;538.00;2406.40;;;;;;5013624;28;20389;-77
2021/08/08 03:05:23;;;;;;;5.82;3.45;;;538.00;2406.40;;;;;;5027444;28;20095;-77
2021/08/08 03:07:49;;;;;;;5.45;3.40;;;538.00;2406.40;;;;;;5021523;28;20504;-77
2021/08/08 03:10:15;;;;;;;3.92;2.47;;;538.00;2406.40;;;;;;5020912;28;20065;-78
2021/08/08 03:12:41;;;;;;;5.05;3.33;;;537.90;2406.40;;;;;;5018314;28;20068;-77
2021/08/08 03:15:07;;;;;;;4.80;3.25;;;538.00;2406.40;;;;;;5024344;28;20022;-77
2021/08/08 03:17:33;;;;;;;5.50;3.15;;;537.90;2406.40;;;;;;5015097;28;20022;-76
2021/08/08 03:19:59;;;;;;;4.78;3.00;;;537.90;2406.40;;;;;;5013895;28;20033;-77
2021/08/08 03:22:25;;;;;;;4.90;3.42;;;538.00;2406.40;;;;;;5015249;28;20026;-76
2021/08/08 03:24:50;;;;;;;4.47;2.92;;;538.00;2406.40;;;;;;5012918;28;20034;-76
2021/08/08 03:27:16;;;;;;;6.95;2.75;;;538.00;2406.40;;;;;;5028286;28;20035;-76
2021/08/08 03:29:42;;;;;;;4.18;2.80;;;538.10;2406.40;;;;;;5014835;28;20045;-77
2021/08/08 03:32:08;;;;;;;5.47;2.88;;;538.10;2406.40;;;;;;5015066;28;20030;-76
2021/08/08 03:34:34;;;;;;;5.07;2.65;;;538.10;2406.40;;;;;;5030418;28;20443;-76
2021/08/08 03:37:00;;;;;;;3.83;1.92;;;538.20;2406.40;;;;;;5025312;28;20053;-76
2021/08/08 03:39:25;;;;;;;4.55;2.90;;;538.20;2406.40;;;;;;5014359;28;20393;-76
2021/08/08 03:41:54;;;;;;;5.03;2.78;;;538.20;2406.40;;;;;;5016729;28;20113;-76
2021/08/08 03:44:20;;;;;;;4.10;2.88;;;538.30;2406.40;;;;;;5022945;28;20026;-77
2021/08/08 03:46:47;;;;;;;7.05;2.63;;;538.40;2406.40;;;;;;5027209;28;20025;-76
2021/08/08 03:49:14;;;;;;;3.17;2.25;;;538.40;2406.40;;;;;;5013462;28;20060;-76
2021/08/08 03:51:40;;;;;;;6.07;3.25;;;538.40;2406.40;;;;;;5013302;28;20380;-75
2021/08/08 03:54:06;;;;;;;6.15;2.78;;;563.20;2432.00;;;;;;5028511;28;20018;-76
2021/08/08 03:56:34;;;;;;;4.53;2.42;;;563.20;2432.00;;;;;;5025138;28;20567;-78
2021/08/08 03:59:00;;;;;;;3.97;2.47;;;563.20;2432.00;;;;;;5016128;28;20014;-77
2021/08/08 04:01:26;;;;;;;7.55;3.22;;;563.20;2432.00;;;;;;5012932;28;20397;-77
2021/08/08 04:03:52;;;;;;;5.20;2.90;;;563.20;2432.00;;;;;;5011735;28;20055;-78
2021/08/08 04:06:17;;;;;;;6.10;3.25;;;563.30;2432.00;;;;;;5029135;28;20468;-78
2021/08/08 04:08:43;;;;;;;4.20;2.72;;;563.40;2432.00;;;;;;5008820;28;20022;-78
2021/08/08 04:11:12;;;;;;;6.18;2.67;;;563.40;2432.00;;;;;;5020524;28;20357;-78
2021/08/08 04:13:38;;;;;;;4.18;2.80;;;563.50;2432.00;;;;;;5023375;28;20120;-78
2021/08/08 04:16:04;;;;;;;5.88;2.95;;;563.50;2432.00;;;;;;5026974;28;20156;-79
2021/08/08 04:18:30;;;;;;;5.60;3.08;;;563.50;2432.00;;;;;;5017810;28;20030;-78
2021/08/08 04:20:56;;;;;;;4.80;2.78;;;563.70;2432.00;;;;;;5023379;28;20022;-78
2021/08/08 04:23:21;;;;;;;5.22;2.97;;;563.80;2432.00;;;;;;5017923;28;20029;-78
2021/08/08 04:25:47;;;;;;;5.20;2.83;;;563.80;2432.00;;;;;;5027378;28;20030;-79
2021/08/08 04:28:13;;;;;;;10.27;2.65;;;564.00;2432.00;;;;;;5022792;28;20114;-78
2021/08/08 04:30:39;;;;;;;4.82;2.80;;;564.00;2432.00;;;;;;5009780;28;20044;-78
2021/08/08 04:33:05;;;;;;;7.00;2.60;;;564.00;2432.00;;;;;;5020349;28;20057;-78
2021/08/08 04:35:32;;;;;;;4.18;3.25;;;564.00;2432.00;;;;;;5011802;28;20025;-78
2021/08/08 04:37:58;;;;;;;4.85;2.83;;;564.10;2432.00;;;;;;5004571;28;20105;-79
2021/08/08 04:40:24;;;;;;;9.27;3.65;;;588.80;2432.00;;;;;;5032836;28;20037;-78
2021/08/08 04:42:50;;;;;;;6.13;3.33;;;588.80;2432.00;;;;;;5016789;28;20039;-79
2021/08/08 04:45:16;;;;;;;4.25;3.00;;;589.00;2432.00;;;;;;5014854;28;20392;-79
2021/08/08 04:47:41;;;;;;;6.03;3.08;;;589.00;2432.00;;;;;;5012051;28;20030;-79
2021/08/08 04:50:07;;;;;;;8.25;4.63;;;589.00;2432.00;;;;;;5014115;28;20041;-79
2021/08/08 04:52:38;;;;;;;7.15;4.90;;;589.10;2432.00;;;;;;5009765;28;20037;-78
2021/08/08 04:55:04;;;;;;;7.50;3.75;;;589.20;2432.00;;;;;;5011550;28;20033;-77
2021/08/08 04:57:30;;;;;;;6.90;3.63;;;589.30;2432.00;;;;;;5015004;28;20373;-78
2021/08/08 04:59:56;;;;;;;5.43;3.28;;;589.40;2432.00;;;;;;5013780;28;20026;-79
2021/08/08 05:02:22;;;;;;;5.75;3.85;;;589.60;2432.00;;;;;;5011505;28;20026;-78
2021/08/08 05:04:48;;;;;;;8.82;5.57;;;589.60;2432.00;;;;;;5014076;28;20054;-79
2021/08/08 05:07:14;;;;;;;7.70;4.55;;;614.50;2432.00;;;;;;5015431;28;20030;-79
2021/08/08 05:09:39;;;;;;;4.95;3.63;;;614.70;2432.00;;;;;;5020787;28;20025;-80
2021/08/08 05:12:09;;;;;;;4.97;3.42;;;614.80;2432.00;;;;;;5016747;28;20069;-79
2021/08/08 05:14:38;;;;;;;9.23;4.38;;;615.00;2432.00;;;;;;5024335;28;20546;-80
2021/08/08 05:17:04;;;;;;;8.02;4.40;;;615.10;2432.00;;;;;;5011132;28;20416;-80
2021/08/08 05:19:29;;;;;;;11.05;5.95;;;615.20;2432.00;;;;;;5012788;28;20030;-80
2021/08/08 05:21:55;;;;;;;7.55;4.53;;;640.00;2432.00;;;;;;5015025;28;20033;-80
2021/08/08 05:24:21;;;;;;;9.73;5.13;;;640.10;2432.00;;;;;;5013815;28;20036;-80
2021/08/08 05:26:47;;;;;;;7.68;4.97;;;640.20;2432.00;;;;;;5012300;28;20100;-80
2021/08/08 05:29:13;;;;;;;14.30;5.50;;;640.40;2432.00;;;;;;5012536;28;20381;-80
2021/08/08 05:31:40;;;;;;;8.57;5.88;;;640.50;2432.00;;;;;;5012548;28;20025;-80
2021/08/08 05:34:07;;;;;;;16.77;5.05;;;640.70;2432.00;;;;;;5012217;28;20029;-80
2021/08/08 05:36:32;;;;;;;10.32;6.80;;;640.60;2432.00;;;;;;5011468;28;20157;-80
2021/08/08 05:39:00;;;;;;;9.60;5.53;;;640.80;2432.00;;;;;;5011880;28;20058;-80
2021/08/08 05:41:26;;;;;;;15.20;6.85;;;640.90;2432.00;;;;;;5013168;28;20018;-80
2021/08/08 05:43:53;;;;;;;11.68;6.45;;;665.90;2432.00;;;;;;5012033;28;20032;-80
2021/08/08 05:46:18;;;;;;;15.57;6.70;;;666.10;2432.00;;;;;;5014690;28;20030;-80
2021/08/08 05:48:44;;;;;;;13.20;6.13;;;666.30;2432.00;;;;;;5009838;28;20029;-80
2021/08/08 05:51:10;;;;;;;12.77;6.65;;;666.30;2432.00;;;;;;5011649;28;20030;-80
2021/08/08 05:53:36;;;;;;;11.68;7.95;;;666.50;2432.00;;;;;;5010588;28;20503;-79
2021/08/08 05:56:02;;;;;;;9.85;6.43;;;691.30;2432.00;;;;;;5004457;28;20117;-80
2021/08/08 05:58:27;;;;;;;13.05;7.07;;;691.40;2432.00;;;;;;5011059;28;20038;-79
2021/08/08 06:00:53;;;;;;;11.20;6.47;;;691.60;2432.00;;;;;;5010380;28;20038;-79
2021/08/08 06:03:19;;;;;;;11.02;7.03;;;691.80;2432.00;;;;;;5010573;28;20045;-79
2021/08/08 06:05:45;;;;;;;14.07;6.45;;;691.90;2432.00;;;;;;5009377;28;20037;-79
2021/08/08 06:08:10;;;;;;;11.95;6.80;;;716.80;2432.00;;;;;;5007293;28;20484;-80
2021/08/08 06:10:37;;;;;;;12.07;7.40;;;716.80;2432.00;;;;;;5017091;28;20040;-80
2021/08/08 06:13:03;;;;;;;14.30;7.38;;;716.90;2432.00;;;;;;5028177;28;20087;-79
2021/08/08 06:15:29;;;;;;;17.42;7.65;;;717.00;2432.00;;;;;;5014368;28;20105;-80
2021/08/08 06:17:55;;;;;;;14.93;8.40;;;717.20;2432.00;;;;;;5010965;28;20101;-80
2021/08/08 06:20:21;;;;;;;14.35;8.52;;;717.30;2406.40;;;;;;5010310;28;20381;-80
2021/08/08 06:22:47;;;;;;;12.20;9.02;;;717.50;2380.80;;;;;;5011745;28;20036;-80
2021/08/08 06:25:12;;;;;;;15.80;8.57;;;717.50;2380.80;;;;;;5009627;28;20048;-79
2021/08/08 06:27:38;;;;;;;18.02;9.65;;;717.70;2355.20;;;;;;5009714;28;20030;-78
2021/08/08 06:30:05;;;;;;;14.23;8.60;;;742.40;2355.20;;;;;;5009883;28;20044;-79
2021/08/08 06:32:31;;;;;;;16.48;9.45;;;742.60;2329.60;;;;;;5009553;28;20081;-78
2021/08/08 06:34:57;;;;;;;18.33;9.60;;;743.00;2329.60;;;;;;5014064;28;20018;-79
2021/08/08 06:37:22;;;;;;;14.95;8.80;;;743.10;2304.00;;;;;;5010337;28;20050;-78
2021/08/08 06:39:49;;;;;;;15.73;9.18;;;743.10;2304.00;;;;;;5012138;28;20370;-79
2021/08/08 06:42:15;;;;;;;20.10;10.55;;;743.20;2304.00;;;;;;5009524;28;20380;-79
2021/08/08 06:44:41;;;;;;;18.23;9.05;;;768.00;2278.40;;;;;;5043277;28;20038;-78
2021/08/08 06:47:07;;;;;;;14.88;9.27;;;768.10;2278.40;;;;;;5006050;28;20389;-78
2021/08/08 06:49:32;;;;;;;19.65;9.40;;;768.20;2227.20;;;;;;5005704;28;21485;-78
2021/08/08 06:51:59;;;;;;;21.67;8.95;;;768.60;2201.60;;;;;;5012491;28;20566;-79
2021/08/08 06:54:25;;;;;;;21.02;11.05;;;793.60;2201.60;;;;;;5009958;28;20030;-78
2021/08/08 06:56:50;;;;;;;18.40;10.77;;;793.80;2150.40;;;;;;5012337;28;20044;-80
2021/08/08 06:59:16;;;;;;;17.35;10.93;;;794.10;2124.80;;;;;;5040721;28;20030;-78
2021/08/08 07:01:42;;;;;;;23.63;12.07;;;794.40;2048.00;;;;;;5010610;28;20018;-79
2021/08/08 07:04:08;;;;;;;18.27;11.43;;;819.20;2022.40;;;;;;5009517;28;20054;-79
2021/08/08 07:06:33;;;;;;;21.73;11.52;;;819.50;1996.80;;;;;;5007350;28;20026;-78
2021/08/08 07:08:59;;;;;;;22.00;12.63;;;819.70;1971.20;;;;;;5022755;28;20093;-83
2021/08/08 07:11:26;;;;;;;19.08;10.70;;;819.90;1920.00;;;;;;5034445;28;20123;-78
2021/08/08 07:13:52;;;;;;;17.58;11.48;;;819.90;1894.40;;;;;;5006079;28;20030;-78
2021/08/08 07:16:18;;;;;;;17.58;11.30;;;844.80;1894.40;;;;;;5012605;28;20033;-77
2021/08/08 07:18:44;;;;;;;18.88;11.35;;;844.80;1894.40;;;;;;5011162;28;20698;-80
2021/08/08 07:21:10;;;;;;;16.48;11.45;;;820.10;1868.80;;;;;;5014760;28;20026;-78
2021/08/08 07:23:36;;;;;;;18.45;10.82;;;844.80;1894.40;;;;;;5024920;28;20025;-78
2021/08/08 07:26:02;;;;;;;15.00;10.52;;;844.80;1868.80;;;;;;5030920;28;20489;-78
2021/08/08 07:28:28;;;;;;;19.40;10.57;;;844.80;1868.80;;;;;;5024194;28;20021;-78
2021/08/08 07:30:54;;;;;;;20.40;11.85;;;845.00;1843.20;;;;;;5020084;28;20018;-78
2021/08/08 07:33:19;;;;;;;20.88;13.32;;;845.00;1843.20;;;;;;5015181;28;20500;-79
2021/08/08 07:35:48;;;;;;;20.33;11.27;;;845.20;1817.60;;;;;;5014484;28;20053;-78
2021/08/08 07:38:14;;;;;;;23.20;12.10;;;845.40;1817.60;;;;;;5017088;28;20026;-78
2021/08/08 07:40:39;;;;;;;20.42;13.48;;;845.40;1817.60;;;;;;5013923;28;20029;-78
2021/08/08 07:43:05;;;;;;;19.20;11.70;;;845.30;1792.00;;;;;;5010190;28;20049;-78
2021/08/08 07:45:31;;;;;;;20.75;12.55;;;845.50;1792.00;;;;;;5008274;28;20029;-78
2021/08/08 07:47:57;;;;;;;20.77;12.40;;;870.40;1792.00;;;;;;5011964;28;20033;-78
2021/08/08 07:50:23;;;;;;;24.92;13.60;;;870.50;1740.80;;;;;;5008033;28;20022;-79
2021/08/08 07:52:48;;;;;;;29.15;13.43;;;870.40;1740.80;;;;;;5045574;28;20022;-78
2021/08/08 07:55:14;;;;;;;20.05;12.88;;;870.60;1740.80;;;;;;5014314;28;20030;-78
2021/08/08 07:57:40;;;;;;;22.83;14.13;;;870.50;1766.40;;;;;;5014231;28;20369;-78
2021/08/08 08:00:06;;;;;;;25.60;14.43;;;870.90;1740.80;;;;;;5012847;28;20038;-78
2021/08/08 08:02:32;;;;;;;25.15;13.90;;;871.10;1715.20;;;;;;5023364;28;20021;-78
2021/08/08 08:04:58;;;;;;;27.02;14.50;;;871.30;1715.20;;;;;;5014901;28;20554;-79
2021/08/08 08:07:23;;;;;;;22.30;14.38;;;896.10;1689.60;;;;;;5015379;28;20037;-79
2021/08/08 08:09:49;;;;;;;22.58;15.25;;;896.10;1689.60;;;;;;5026944;28;20022;-79
2021/08/08 08:12:15;;;;;;;23.30;15.20;;;896.20;1664.00;;;;;;5013073;28;20030;-79
2021/08/08 08:14:41;;;;;;;24.10;16.58;;;896.40;1664.00;;;;;;5026825;28;20393;-79
2021/08/08 08:17:06;;;;;;;22.40;14.73;;;896.50;1664.00;;;;;;5012612;28;20022;-79
2021/08/08 08:19:32;;;;;;;34.45;16.75;;;896.40;1664.00;;;;;;5012991;28;20507;-78
2021/08/08 08:21:58;;;;;;;26.58;17.30;;;896.50;1638.40;;;;;;5016793;28;20025;-79
2021/08/08 08:24:24;;;;;;;23.95;16.05;;;921.60;1664.00;;;;;;5013200;28;20033;-79
2021/08/08 08:26:49;;;;;;;27.10;16.58;;;921.80;1612.80;;;;;;5017985;28;20026;-80
2021/08/08 08:29:15;;;;;;;30.77;17.27;;;921.80;1638.40;;;;;;5019427;28;20160;-79
2021/08/08 08:31:41;;;;;;;25.95;15.98;;;922.10;1587.20;;;;;;5014697;28;20026;-78
2021/08/08 08:34:06;;;;;;;23.48;14.20;;;922.10;1587.20;;;;;;5011903;28;20125;-78
2021/08/08 08:36:33;;;;;;;25.60;15.65;;;922.40;1587.20;;;;;;5014435;28;20445;-77
2021/08/08 08:38:58;;;;;;;23.92;15.60;;;947.40;1561.60;;;;;;5016003;28;20034;-78
2021/08/08 08:41:30;;;;;;;25.85;15.63;;;947.50;1536.00;;;;;;5013011;28;20038;-75
2021/08/08 08:44:00;;;;;;;20.60;14.02;;;947.90;1536.00;;;;;;5008042;28;20030;-78
2021/08/08 08:46:26;;;;;;;22.52;14.38;;;948.00;1510.40;;;;;;5010608;28;20030;-78
2021/08/08 08:48:53;;;;;;;21.75;14.57;;;948.10;1536.00;;;;;;5020150;28;20136;-77
2021/08/08 08:51:34;;;;;;;23.63;13.50;;;972.90;1536.00;;;;;;5021251;28;20112;-77
2021/08/08 08:54:00;;;;;;;16.05;12.02;;;973.20;1484.80;;;;;;5026431;28;20013;-77
2021/08/08 08:56:28;;;;;;;19.23;12.40;;;973.30;1484.80;;;;;;5022645;28;20383;-77
2021/08/08 08:58:55;;;;;;;17.15;11.32;;;973.30;1459.20;;;;;;5011243;28;20030;-77
2021/08/08 09:01:21;;;;;;;24.15;16.85;;;973.30;1459.20;;;;;;5012157;28;20028;-77
2021/08/08 09:03:46;;;;;;;15.57;10.35;;;998.40;1433.60;;;;;;5022389;28;20045;-77
2021/08/08 09:06:13;;;;;;;15.55;10.65;;;998.60;1459.20;;;;;;5027145;28;20105;-77
2021/08/08 09:08:39;;;;;;;24.83;10.40;;;998.90;1433.60;;;;;;5020929;28;20029;-77
2021/08/08 09:11:07;;;;;;;20.50;9.75;;;999.10;1382.40;;;;;;5013036;28;20034;-77
2021/08/08 09:13:52;;;;;;;18.55;10.77;;;999.00;1408.00;;;;;;5019525;28;20384;-77
2021/08/08 09:16:18;;;;;;;14.43;9.57;;;999.00;1382.40;;;;;;5005845;28;20371;-77
2021/08/08 09:18:54;;;;;;;20.65;10.18;;;999.20;1356.80;;;;;;5008407;28;20022;-77
2021/08/08 09:21:22;;;;;;;15.52;10.15;;;1024.00;1331.20;;;;;;5005223;28;20030;-77
2021/08/08 09:23:56;;;;;;;17.27;12.27;;;1024.10;1331.20;;;;;;5006896;28;20049;-77
2021/08/08 09:26:32;;;;;;;18.63;12.48;;;1024.00;1331.20;;;;;;5020612;28;20038;-77
2021/08/08 09:29:05;;;;;;;17.80;11.88;;;1024.20;1331.20;;;;;;5006069;28;20039;-77
2021/08/08 09:31:42;;;;;;;17.35;11.75;;;1024.20;1280.00;;;;;;5011437;28;20025;-77
2021/08/08 09:34:09;;;;;;;18.73;12.35;;;1024.20;1280.00;;;;;;5020760;28;20133;-77
2021/08/08 09:36:43;;;;;;;18.25;13.23;;;1024.50;1280.00;;;;;;5020293;28;20050;-77
2021/08/08 09:39:09;;;;;;;22.63;13.77;;;1049.60;1305.60;;;;;;5011013;28;20037;-77
2021/08/08 09:41:35;;;;;;;22.63;14.70;;;1024.90;1254.40;;;;;;5010166;28;20041;-77
2021/08/08 09:44:10;;;;;;;22.52;15.75;;;1049.90;1254.40;;;;;;5011849;28;20405;-77
2021/08/08 09:46:36;;;;;;;;;;;1049.80;1254.40;;;;;;5012692;28;20079;-78
2021/08/08 09:49:12;;;;;;;25.23;16.48;;;1050.10;1228.80;;;;;;5044175;28;19995;-79
2021/08/08 09:51:49;;;;;;;20.55;14.90;;;1050.20;1228.80;;;;;;5012339;28;20503;-78
2021/08/08 09:54:14;;;;;;;22.65;16.45;;;1050.40;1228.80;;;;;;4999861;28;20026;-77
2021/08/08 09:56:40;;;;;;;21.15;14.60;;;1075.20;1228.80;;;;;;5012492;28;20021;-77
2021/08/08 09:59:06;;;;;;;22.38;15.75;;;1075.50;1203.20;;;;;;5010985;28;20022;-77
2021/08/08 10:01:39;;;;;;;22.08;15.68;;;1075.70;1203.20;;;;;;5012474;28;20041;-77
2021/08/08 10:04:08;;;;;;;26.10;18.63;;;1075.80;1177.60;;;;;;5008504;28;20069;-76
2021/08/08 10:06:36;;;;;;;25.17;16.77;;;1075.90;1152.00;;;;;;5011857;28;20053;-77
2021/08/08 10:09:02;;;;;;;27.42;17.63;;;1076.10;1152.00;;;;;;5016473;28;20033;-77
2021/08/08 10:11:29;;;;;;;24.20;17.42;;;1076.00;1152.00;;;;;;5015685;28;20026;-77
2021/08/08 10:14:05;;;;;;;23.60;16.60;;;1076.10;1152.00;;;;;;5006953;28;20033;-80
2021/08/08 10:16:34;;;;;;;28.63;21.13;;;1075.90;1152.00;;;;;;5005166;28;20034;-78
2021/08/08 10:19:02;;;;;;;23.88;17.23;;;1075.90;1152.00;;;;;;5010243;28;20030;-78
2021/08/08 10:21:32;;;;;;;23.90;17.33;;;1101.00;1126.40;;;;;;5006918;28;20025;-78
2021/08/08 10:24:02;;;;;;;33.60;19.75;;;1101.10;1126.40;;;;;;5004897;28;20054;-78
2021/08/08 10:26:28;;;;;;;25.48;20.33;;;1101.60;1100.80;;;;;;5001335;28;20209;-77
2021/08/08 10:28:56;;;;;;;27.58;20.70;;;1101.60;1126.40;;;;;;5010279;28;20026;-79
2021/08/08 10:31:23;;;;;;;34.47;24.10;;;1126.40;1152.00;;;;;;5010491;28;20037;-78
2021/08/08 10:33:52;;;;;;;25.85;19.40;;;1101.50;1126.40;;;;;;5009461;28;20014;-77
2021/08/08 10:36:31;;;;;;;35.85;24.33;;;1101.60;1126.40;;;;;;5007992;28;20030;-78
2021/08/08 10:39:12;;;;;;;30.02;20.63;;;1126.40;1126.40;;;;;;5011060;28;20075;-78
2021/08/08 10:41:40;;;;;;;34.00;20.55;;;1126.60;1126.40;;;;;;5006609;28;20045;-77
2021/08/08 10:44:11;;;;;;;24.58;19.30;;;1126.80;1100.80;;;;;;5016290;28;20108;-78
2021/08/08 10:46:47;;;;;;;26.67;18.80;;;1126.70;1126.40;;;;;;4998123;28;20501;-77
2021/08/08 10:49:13;;;;;;;29.08;19.02;;;1126.60;1126.40;;;;;;5011799;28;20397;-78
2021/08/08 10:51:39;;;;;;;30.45;19.83;;;1126.90;1126.40;;;;;;5010904;28;20125;-77
2021/08/08 10:54:08;;;;;;;32.25;19.23;;;1127.10;1100.80;;;;;;5011872;28;20038;-78
2021/08/08 10:56:48;;;;;;;23.92;16.40;;;1152.00;1100.80;;;;;;5014027;28;20029;-78
2021/08/08 10:59:18;;;;;;;19.48;14.70;;;1152.20;1075.20;;;;;;5009616;28;20117;-78
2021/08/08 11:01:45;;;;;;;27.75;15.85;;;1152.10;1049.60;;;;;;5011029;28;20025;-77
2021/08/08 11:04:11;;;;;;;23.45;17.08;;;1152.50;1024.00;;;;;;5013763;28;20366;-78
2021/08/08 11:06:37;;;;;;;24.70;17.27;;;1152.30;1049.60;;;;;;5005947;28;20049;-78
2021/08/08 11:09:04;;;;;;;24.35;15.98;;;1152.00;1075.20;;;;;;5043443;28;20025;-78
2021/08/08 11:11:38;;;;;;;25.00;16.38;;;1152.20;1049.60;;;;;;5014704;28;20030;-79
2021/08/08 11:14:14;;;;;;;22.92;15.98;;;1152.60;1024.00;;;;;;5046954;28;20484;-78
2021/08/08 11:16:45;;;;;;;22.83;17.00;;;1152.50;1024.00;;;;;;5012369;28;20486;-77
2021/08/08 11:19:11;;;;;;;24.05;14.07;;;1152.80;1024.00;;;;;;5006451;28;20035;-77
2021/08/08 11:21:38;;;;;;;19.52;12.27;;;1152.20;1024.00;;;;;;5013941;28;20026;-77
2021/08/08 11:24:09;;;;;;;23.33;14.60;;;1152.60;1024.00;;;;;;5015782;28;20496;-77
2021/08/08 11:26:35;;;;;;;23.25;14.88;;;1177.60;998.40;;;;;;5014375;28;20034;-77
2021/08/08 11:29:04;;;;;;;32.65;18.40;;;1152.60;998.40;;;;;;5012799;28;20026;-77
2021/08/08 11:31:38;;;;;;;27.67;15.02;;;1152.80;1024.00;;;;;;5010238;28;20100;-77
2021/08/08 11:34:09;;;;;;;21.25;14.70;;;1177.90;998.40;;;;;;5011771;28;20403;-78
2021/08/08 11:36:38;;;;;;;18.20;13.63;;;1178.10;998.40;;;;;;5012917;28;20462;-78
2021/08/08 11:39:07;;;;;;;19.10;13.80;;;1178.30;998.40;;;;;;5013318;28;20457;-77
2021/08/08 11:41:33;;;;;;;21.98;13.30;;;1178.30;998.40;;;;;;5014348;28;20100;-78
2021/08/08 11:44:04;;;;;;;18.40;13.80;;;1178.40;998.40;;;;;;5016304;28;20444;-77
2021/08/08 11:46:30;;;;;;;17.63;13.85;;;1178.30;998.40;;;;;;5008433;28;20054;-77
2021/08/08 11:48:55;;;;;;;21.40;15.00;;;1178.30;1024.00;;;;;;5005847;28;20064;-78
2021/08/08 11:51:21;;;;;;;20.45;12.98;;;1178.40;998.40;;;;;;5008147;28;20026;-77
2021/08/08 11:53:56;;;;;;;18.92;13.43;;;1203.30;998.40;;;;;;5010960;28;20044;-77
2021/08/08 11:56:28;;;;;;;16.58;11.60;;;1203.50;998.40;;;;;;5008365;28;20083;-78
2021/08/08 11:58:56;;;;;;;20.27;13.70;;;1203.90;998.40;;;;;;5010911;28;20075;-78
2021/08/08 12:01:23;;;;;;;14.43;11.57;;;1228.90;998.40;;;;;;5018172;28;20384;-78
2021/08/08 12:03:54;;;;;;;12.55;9.50;;;1229.00;972.80;;;;;;5013921;28;20512;-78
2021/08/08 12:06:24;;;;;;;12.73;8.88;;;1228.90;972.80;;;;;;5014694;28;20038;-78